Buffalo, WY

6:07 AM MST on November 26, 2014 (GMT -0700)
Esponda Ranch | Change Station
CLOSE
Current Station
Personal Weather Station
Location: Buffalo, WY
Elevation: 4665 ft
Nearby Weather Stations
Active Advisory: Special Statement Active Notice: Record Report

Elev 4665 ft 44.32 °N, 106.67 °W | Updated 2 minutes ago

Light Snow
Light Snow Mist
25.0 °F
Feels Like 25 °F
N
0.0
Wind Variable Wind from SSW
Gusts 1.0 mph

Today
High -- | Low -- °F
--% Chance of Precip.
Yesterday
High -- | Low -- °F
Precip. -- in
7:16 AM 4:31 PM
Waxing Crescent, 19% visible
Pressure 30.14 in
Visibility 1.0 miles
Clouds
Windchill 25 °F
Dew Point 23 °F
Humidity 92%
Rainfall 0.00 in
Snow Depth Not available.
UV Not available.
Pollen .10 out of 12
Air Quality Not available.
Flu Activity Not available.
SPECI KBYG 261300Z AUTO 00000KT 1SM -SN BR VV014 M04/M06 A3014 RMK AO2 P0001 T10441061

More Conditions Fewer Conditions

Pressure 30.14 in
Visibility 1.0 miles
Clouds
Windchill 25 °F
Dew Point 23 °F
Humidity 92%
Rainfall 0.00 in
Snow Depth Not available.
UV Not available.
Pollen .10 out of 12
Air Quality Not available.
Flu Activity Not available.
SPECI KBYG 261300Z AUTO 00000KT 1SM -SN BR VV014 M04/M06 A3014 RMK AO2 P0001 T10441061

More Conditions Fewer Conditions

10-Day Weather Forecast

Almanac

Astronomy

Nov. 26, 2014 Rise Set
Actual Time
Civil Twilight
Nautical Twilight
Astronomical Twilight
Moon
Length of Visible Light
Length of Day
Tomorrow will be .
, % of the Moon is Illuminated

Today's Extremes

State Highs State Lows

Community

WunderPhotos

Upload Photos

1,773,720 photos uploaded!

WunderBlogs® & News

Nearby

Air Quality

  Air Quality AQ Index Pollutant
Not available.

Snow Depth

Station Depth Elevation

Earthquake Activity

City Distance Mag. Time & Date
Minimum magnitude displayed is 2.5.

Coastal Water Temperatures

Place Temperature

Nearby Weather Stations